Topeka, KS

12:32 AM CDT on April 26, 2017 (GMT -0500)
Billard Municipal | | Change Station

Elev 879 ft 39.07 °N, 95.62 °W | Updated 39 minutes ago

Overcast
Overcast
48 °F
Feels Like 48 °F
N
9
Wind Variable Wind from NW

Today
High -- | Low -- °F
--% Chance of Precip.
Yesterday
High -- | Low -- °F
Precip. -- in
Pressure 29.52 in
Visibility 10.0 miles
Clouds Overcast 1400 ft
Dew Point 46 °F
Humidity 93%
Rainfall 0.00 in
Snow Depth Not available.
6:30 AM 8:10 PM
Waning Crescent, 0% visible
METAR KTOP 260453Z AUTO 32008KT 10SM OVC014 09/08 A2953 RMK AO2 RAB03E41 SLP996 P0000 T00890078
Pressure 29.52 in
Visibility 10.0 miles
Clouds Overcast 1400 ft
Dew Point 46 °F
Humidity 93%
Rainfall 0.00 in
Snow Depth Not available.
6:30 AM 8:10 PM
Waning Crescent, 0% visible
METAR KTOP 260453Z AUTO 32008KT 10SM OVC014 09/08 A2953 RMK AO2 RAB03E41 SLP996 P0000 T00890078

Get Severe Weather Alerts

Thanks for signing up!

Be on the lookout for a verification email in your inbox.

You'll start receiving the daily forecast at 8 AM.

×

10-Day Weather Forecast

Almanac

Astronomy

Apr. 26, 2017 Rise Set
Actual Time
Civil Twilight
Nautical Twilight
Astronomical Twilight
Moon
Length of Visible Light
Length of Day
Tomorrow will be .
, % of the Moon is Illuminated

Today's Extremes

State Highs State Lows

Community

WunderPhotos

WunderBlog® & News

Nearby

Air Quality

  Air Quality AQ Index Pollutant
Not available.

Snow Depth

Station Depth Elevation

Earthquake Activity

City Distance Mag. Time & Date
Minimum magnitude displayed is 2.5.

Coastal Water Temperatures

Place Temperature

Stations

Nearby Weather Stations

Station Location Temp. Windchill Dew Point Humidity Wind Precip. Elev Updated Type
                   

Watches & Warnings

There are currently no watches in effect.